Time;durP1;ratioP1;P1;durP2;ratioP2;P2;SDS_P1;SDS_P2;PMS_P1;PMS_P2;Temp;Humidity;BMP_temperature;BMP_pressure;BME280_temperature;BME280_humidity;BME280_pressure;Samples;Min_cycle;Max_cycle;Signal;HPM_P1;HPM_P2
2022/08/05 00:01:25;;;;;;;6.95;6.25;;;;;;;26.47;46.84;100574.25;5033115;28;20030;-69
2022/08/05 00:03:51;;;;;;;10.05;7.03;;;;;;;26.44;46.21;100579.88;5033344;28;20452;-70
2022/08/05 00:06:17;;;;;;;8.95;6.65;;;;;;;26.43;46.42;100578.16;5031967;28;20029;-69
2022/08/05 00:08:43;;;;;;;7.30;6.60;;;;;;;26.37;46.47;100574.16;5031970;28;20029;-69
2022/08/05 00:11:12;;;;;;;6.95;6.18;;;;;;;26.29;46.67;100577.50;5033348;28;20425;-69
2022/08/05 00:13:39;;;;;;;14.23;6.60;;;;;;;26.28;46.79;100575.78;5033195;28;20033;-70
2022/08/05 00:16:07;;;;;;;6.22;5.63;;;;;;;26.27;46.72;100578.59;5035786;28;20057;-69
2022/08/05 00:18:32;;;;;;;7.10;6.05;;;;;;;26.24;46.56;100579.72;5036727;28;20033;-68
2022/08/05 00:20:58;;;;;;;7.30;6.00;;;;;;;26.25;46.71;100576.06;5036554;28;20108;-69
2022/08/05 00:23:23;;;;;;;8.27;6.85;;;;;;;26.26;46.75;100584.97;5035538;28;20112;-69
2022/08/05 00:25:49;;;;;;;6.45;5.85;;;;;;;26.25;46.67;100573.38;5036735;28;20026;-69
2022/08/05 00:28:15;;;;;;;6.45;5.80;;;;;;;26.23;46.72;100569.06;5036678;28;20504;-69
2022/08/05 00:30:43;;;;;;;9.07;5.90;;;;;;;26.18;46.87;100565.91;5036721;28;20033;-69
2022/08/05 00:33:09;;;;;;;7.68;6.43;;;;;;;26.15;46.89;100564.34;5018968;28;20064;-69
2022/08/05 00:35:34;;;;;;;8.93;5.90;;;;;;;26.08;46.99;100563.13;5036310;28;20065;-70
2022/08/05 00:38:00;;;;;;;7.57;6.35;;;;;;;26.06;46.98;100567.81;5036295;28;20098;-69
2022/08/05 00:40:27;;;;;;;8.00;6.10;;;;;;;26.02;47.07;100563.66;5036508;28;20109;-69
2022/08/05 00:42:53;;;;;;;7.93;5.63;;;;;;;25.99;47.18;100561.22;5035118;28;20037;-70
2022/08/05 00:45:19;;;;;;;5.97;5.40;;;;;;;25.95;47.17;100557.94;5036445;28;20037;-70
2022/08/05 00:47:45;;;;;;;7.13;6.35;;;;;;;25.94;47.34;100558.06;5035209;28;20049;-70
2022/08/05 00:50:11;;;;;;;7.47;6.70;;;;;;;25.93;47.39;100562.59;5036295;28;20443;-69
2022/08/05 00:52:39;;;;;;;6.18;5.68;;;;;;;25.91;47.31;100561.84;5036594;28;20527;-69
2022/08/05 00:55:05;;;;;;;6.05;5.45;;;;;;;25.88;47.38;100561.25;5036232;28;20091;-69
2022/08/05 00:57:30;;;;;;;5.75;5.25;;;;;;;25.89;47.33;100563.81;5036314;28;20029;-69
2022/08/05 00:59:56;;;;;;;6.70;5.55;;;;;;;25.94;47.23;100566.13;5036267;28;20113;-70
2022/08/05 01:02:21;;;;;;;6.70;6.00;;;;;;;25.96;47.20;100567.69;5036088;28;20531;-70
2022/08/05 01:04:46;;;;;;;5.68;5.18;;;;;;;25.91;47.19;100566.38;5035941;28;20473;-70
2022/08/05 01:07:12;;;;;;;6.90;6.15;;;;;;;25.89;47.12;100568.34;5035030;28;20029;-70
2022/08/05 01:09:37;;;;;;;7.22;5.60;;;;;;;25.87;47.24;100557.72;5035703;28;20121;-69
2022/08/05 01:12:07;;;;;;;6.13;5.55;;;;;;;25.86;47.44;100549.78;5035942;28;20108;-70
2022/08/05 01:15:02;;;;;;;6.65;5.65;;;;;;;25.77;47.77;100544.16;5034724;28;20021;-69
2022/08/05 01:17:39;;;;;;;7.32;5.45;;;;;;;25.77;47.60;100549.56;5035034;28;20104;-70
2022/08/05 01:20:24;;;;;;;5.93;5.43;;;;;;;25.72;47.86;100540.09;5034349;28;20076;-69
2022/08/05 01:23:02;;;;;;;8.70;5.47;;;;;;;25.68;47.58;100533.25;5035974;28;20100;-69
2022/08/05 01:26:01;;;;;;;5.70;5.20;;;;;;;25.64;47.85;100532.66;5034335;28;20026;-69
2022/08/05 01:28:56;;;;;;;5.75;4.75;;;;;;;25.68;47.80;100531.44;5035704;28;20026;-69
2022/08/05 01:31:21;;;;;;;7.35;5.85;;;;;;;25.71;47.59;100535.72;5035596;28;20480;-69
2022/08/05 01:34:01;;;;;;;6.03;5.43;;;;;;;25.68;47.79;100525.19;5034289;28;20029;-69
2022/08/05 01:36:31;;;;;;;7.97;6.00;;;;;;;25.69;47.40;100525.06;5035420;28;20029;-70
2022/08/05 01:38:58;;;;;;;7.78;5.15;;;;;;;25.70;47.58;100529.47;5035575;28;20030;-69
2022/08/05 01:41:26;;;;;;;6.90;5.63;;;;;;;25.70;47.35;100529.47;5035434;28;20029;-69
2022/08/05 01:43:53;;;;;;;7.70;5.50;;;;;;;25.71;47.31;100528.50;5034132;28;20112;-70
2022/08/05 01:46:20;;;;;;;7.45;6.40;;;;;;;25.70;47.22;100521.41;5034042;28;20456;-69
2022/08/05 01:48:47;;;;;;;6.68;5.35;;;;;;;25.63;47.52;100520.19;5035336;28;20385;-70
2022/08/05 01:51:16;;;;;;;6.15;5.55;;;;;;;25.56;47.52;100517.16;5034929;28;20121;-69
2022/08/05 01:53:45;;;;;;;7.43;4.95;;;;;;;25.60;47.44;100523.13;5035063;28;20036;-69
2022/08/05 01:56:15;;;;;;;5.60;5.00;;;;;;;25.58;47.48;100522.41;5035168;28;20113;-69
2022/08/05 01:58:43;;;;;;;7.60;6.20;;;;;;;25.42;47.80;100520.13;5035102;28;20033;-69
2022/08/05 02:01:10;;;;;;;6.78;5.07;;;;;;;25.45;47.80;100529.75;5034834;28;20026;-69
2022/08/05 02:03:39;;;;;;;6.55;5.57;;;;;;;25.46;47.65;100523.44;5034864;28;20041;-70
2022/08/05 02:06:07;;;;;;;6.15;5.55;;;;;;;25.40;47.76;100522.06;5034789;28;20025;-69
2022/08/05 02:08:33;;;;;;;6.50;5.55;;;;;;;25.42;47.98;100530.03;5033742;28;20103;-70
2022/08/05 02:11:07;;;;;;;9.00;5.43;;;;;;;25.40;47.61;100529.28;5034814;28;20049;-70
2022/08/05 02:13:39;;;;;;;6.80;5.32;;;;;;;25.36;47.84;100527.84;5034717;28;20025;-69
2022/08/05 02:16:21;;;;;;;5.22;4.72;;;;;;;25.31;47.81;100526.38;5034711;28;20112;-70
2022/08/05 02:18:54;;;;;;;7.43;5.63;;;;;;;25.30;47.78;100519.28;5034757;28;20029;-70
2022/08/05 02:21:35;;;;;;;8.50;5.10;;;;;;;25.28;47.86;100515.84;5034640;28;20025;-70
2022/08/05 02:24:08;;;;;;;7.95;5.40;;;;;;;25.25;48.11;100512.56;5034446;28;20025;-69
2022/08/05 02:26:46;;;;;;;;;;;;;;;25.20;48.32;100507.56;5034818;28;20416;-70
2022/08/05 02:29:15;;;;;;;6.97;5.68;;;;;;;25.07;48.15;100506.81;5034505;28;19916;-70
2022/08/05 02:31:43;;;;;;;6.40;5.50;;;;;;;25.12;47.99;100501.94;5034442;28;20035;-70
2022/08/05 02:34:12;;;;;;;6.57;5.18;;;;;;;25.11;47.91;100502.09;5033242;28;20059;-70
2022/08/05 02:36:42;;;;;;;5.82;5.10;;;;;;;25.05;48.09;100498.88;5033953;28;20425;-69
2022/08/05 02:39:09;;;;;;;7.65;4.85;;;;;;;25.04;47.98;100509.75;5016587;28;20116;-70
2022/08/05 02:41:38;;;;;;;4.93;4.53;;;;;;;25.04;48.00;100505.22;5034228;28;20025;-70
2022/08/05 02:44:09;;;;;;;6.95;5.38;;;;;;;25.00;47.97;100508.28;5034252;28;20032;-69
2022/08/05 02:46:39;;;;;;;6.40;5.80;;;;;;;25.01;48.12;100501.91;5033882;28;20018;-70
2022/08/05 02:49:06;;;;;;;6.88;4.90;;;;;;;25.01;48.01;100499.22;5034011;28;20029;-70
2022/08/05 02:51:45;;;;;;;5.45;4.95;;;;;;;25.03;48.01;100499.97;5032916;28;20026;-70
2022/08/05 02:54:12;;;;;;;7.65;5.32;;;;;;;25.04;47.88;100499.00;5032731;28;20075;-70
2022/08/05 02:56:40;;;;;;;6.63;5.70;;;;;;;25.01;48.06;100497.38;5033966;28;20087;-69
2022/08/05 02:59:06;;;;;;;8.20;6.07;;;;;;;24.98;47.93;100503.03;5033949;28;20018;-69
2022/08/05 03:01:39;;;;;;;5.95;4.90;;;;;;;24.96;47.99;100504.13;5033740;28;20033;-69
2022/08/05 03:04:07;;;;;;;6.97;6.05;;;;;;;24.93;48.01;100507.06;5033857;28;20037;-69
2022/08/05 03:06:33;;;;;;;8.85;5.82;;;;;;;24.87;48.17;100511.09;5034081;28;20029;-69
2022/08/05 03:08:59;;;;;;;5.90;5.30;;;;;;;24.78;48.49;100507.31;5033883;28;20057;-69
2022/08/05 03:11:26;;;;;;;6.07;5.30;;;;;;;24.76;48.45;100506.56;5033762;28;20060;-68
2022/08/05 03:13:55;;;;;;;7.88;6.20;;;;;;;24.74;48.64;100503.16;5033583;28;20025;-69
2022/08/05 03:16:21;;;;;;;6.60;5.38;;;;;;;24.72;48.59;100496.19;5033612;28;20536;-69
2022/08/05 03:18:52;;;;;;;9.18;5.50;;;;;;;24.71;48.63;100498.00;5033636;28;20100;-70
2022/08/05 03:21:18;;;;;;;10.30;5.90;;;;;;;24.69;48.64;100496.41;5016675;28;20049;-69
2022/08/05 03:23:44;;;;;;;9.35;6.10;;;;;;;24.67;48.76;100499.22;5033718;28;20075;-69
2022/08/05 03:26:09;;;;;;;6.07;4.80;;;;;;;24.68;48.66;100494.72;5032355;28;20416;-69
2022/08/05 03:28:38;;;;;;;8.57;5.88;;;;;;;24.68;48.54;100500.09;5033404;28;20034;-69
2022/08/05 03:31:04;;;;;;;6.50;5.22;;;;;;;24.75;48.26;100496.78;5033366;28;20026;-69
2022/08/05 03:33:30;;;;;;;6.30;5.70;;;;;;;24.76;48.22;100498.50;5033434;28;20025;-69
2022/08/05 03:35:57;;;;;;;9.07;6.03;;;;;;;24.80;48.12;100497.28;5033194;28;20089;-69
2022/08/05 03:38:26;;;;;;;7.25;5.30;;;;;;;24.85;48.02;100488.84;5033046;28;20045;-69
2022/08/05 03:40:52;;;;;;;5.45;4.90;;;;;;;24.91;47.96;100493.75;5033407;28;20095;-69
2022/08/05 03:43:19;;;;;;;5.90;4.97;;;;;;;24.97;47.81;100495.06;5033306;28;20034;-69
2022/08/05 03:45:44;;;;;;;6.18;4.80;;;;;;;25.04;47.44;100490.94;5033437;28;20477;-69
2022/08/05 03:48:10;;;;;;;6.40;5.80;;;;;;;25.04;47.33;100490.94;5033495;28;20032;-69
2022/08/05 03:50:52;;;;;;;5.55;4.82;;;;;;;25.08;47.38;100495.06;5019397;28;20480;-69
2022/08/05 03:53:30;;;;;;;5.40;4.20;;;;;;;25.12;47.76;100491.19;5037484;28;20025;-70
2022/08/05 03:56:25;;;;;;;6.22;4.97;;;;;;;25.19;47.42;100492.41;5037233;28;20056;-69
2022/08/05 03:58:59;;;;;;;5.53;4.65;;;;;;;25.29;47.02;100498.75;5027895;28;20405;-69
2022/08/05 04:01:30;;;;;;;5.97;4.30;;;;;;;25.41;46.65;100488.81;5037305;28;20026;-69
2022/08/05 04:03:58;;;;;;;5.07;4.45;;;;;;;25.51;46.48;100487.09;5037389;28;20021;-69
2022/08/05 04:06:24;;;;;;;6.50;4.57;;;;;;;25.58;46.36;100490.13;5037098;28;20030;-70
2022/08/05 04:09:09;;;;;;;4.85;4.38;;;;;;;25.61;46.17;100489.84;5036982;28;20025;-69
2022/08/05 04:11:39;;;;;;;4.55;4.15;;;;;;;25.69;46.13;100490.06;5037181;28;20071;-69
2022/08/05 04:14:06;;;;;;;4.97;4.40;;;;;;;25.77;45.88;100493.03;5037143;28;20041;-70
2022/08/05 04:16:34;;;;;;;5.10;4.60;;;;;;;25.83;45.67;100483.59;5036835;28;20416;-70
2022/08/05 04:19:00;;;;;;;6.30;5.30;;;;;;;25.83;45.63;100488.13;5036792;28;20026;-70
2022/08/05 04:21:26;;;;;;;6.35;4.97;;;;;;;25.85;45.36;100486.13;5036727;28;20112;-70
2022/08/05 04:23:52;;;;;;;4.60;4.15;;;;;;;25.88;45.49;100475.97;5036893;28;20108;-70
2022/08/05 04:26:17;;;;;;;6.75;4.50;;;;;;;25.94;45.27;100477.31;5036826;28;20021;-70
2022/08/05 04:28:46;;;;;;;6.22;4.50;;;;;;;25.98;45.19;100484.16;5035652;28;20112;-69
2022/08/05 04:31:11;;;;;;;5.13;4.25;;;;;;;25.99;45.08;100484.00;5035345;28;20565;-70
2022/08/05 04:33:39;;;;;;;4.95;4.40;;;;;;;26.07;45.04;100469.03;5036604;28;20029;-70
2022/08/05 04:36:05;;;;;;;4.95;4.25;;;;;;;26.14;44.82;100475.63;5035477;28;20029;-70
2022/08/05 04:38:31;;;;;;;6.53;4.82;;;;;;;26.16;44.68;100479.88;5018619;28;20375;-70
2022/08/05 04:40:56;;;;;;;5.25;4.75;;;;;;;26.20;44.20;100470.53;5035302;28;20041;-71
2022/08/05 04:43:21;;;;;;;5.97;3.80;;;;;;;26.25;44.38;100479.09;5036433;28;20041;-71
2022/08/05 04:45:47;;;;;;;4.38;3.97;;;;;;;26.35;44.29;100483.69;5036655;28;20037;-70
2022/08/05 04:48:14;;;;;;;4.93;4.30;;;;;;;26.42;44.56;100474.09;5036189;28;20033;-70
2022/08/05 04:50:48;;;;;;;4.72;4.22;;;;;;;26.54;43.89;100481.16;5034988;28;20032;-70
2022/08/05 04:53:16;;;;;;;4.18;3.80;;;;;;;26.60;43.92;100475.22;5036249;28;20056;-71
2022/08/05 04:55:42;;;;;;;5.10;3.72;;;;;;;26.65;43.72;100475.69;5036160;28;20022;-71
2022/08/05 04:58:23;;;;;;;4.38;3.88;;;;;;;26.57;43.50;100478.19;5034735;28;20160;-70
2022/08/05 05:00:49;;;;;;;5.97;4.35;;;;;;;26.74;43.50;100474.00;5035552;28;20026;-70
2022/08/05 05:03:15;;;;;;;4.68;3.80;;;;;;;26.88;43.12;100483.56;5035780;28;20052;-70
2022/08/05 05:05:43;;;;;;;4.47;3.92;;;;;;;26.94;43.03;100488.44;5034939;28;20037;-70
2022/08/05 05:08:09;;;;;;;5.18;3.70;;;;;;;27.04;42.99;100481.22;5034728;28;20041;-70
2022/08/05 05:10:43;;;;;;;6.15;4.20;;;;;;;27.16;42.53;100490.09;5035772;28;20543;-71
2022/08/05 05:13:11;;;;;;;5.82;4.63;;;;;;;27.18;42.53;100491.66;5034505;28;20159;-71
2022/08/05 05:15:39;;;;;;;6.55;4.57;;;;;;;27.21;42.35;100483.31;5035879;28;20029;-71
2022/08/05 05:18:05;;;;;;;4.43;3.95;;;;;;;27.29;42.43;100479.91;5035788;28;20381;-70
2022/08/05 05:20:32;;;;;;;5.88;4.10;;;;;;;27.39;42.15;100479.91;5035785;28;20104;-70
2022/08/05 05:23:18;;;;;;;4.95;4.43;;;;;;;27.54;41.67;100481.22;5035809;28;20021;-70
2022/08/05 05:25:56;;;;;;;4.07;3.47;;;;;;;27.65;41.58;100477.53;5035799;28;20044;-70
2022/08/05 05:28:22;;;;;;;6.85;4.15;;;;;;;27.73;41.45;100481.28;5035598;28;20030;-70
2022/08/05 05:30:48;;;;;;;4.68;3.90;;;;;;;27.79;41.63;100477.16;5035233;28;20029;-70
2022/08/05 05:33:17;;;;;;;4.03;3.60;;;;;;;27.91;41.34;100480.56;5035516;28;20033;-69
2022/08/05 05:35:44;;;;;;;6.25;4.13;;;;;;;27.96;40.97;100473.72;5035412;28;20029;-70
2022/08/05 05:38:09;;;;;;;3.83;3.42;;;;;;;28.02;41.21;100477.72;5035220;28;20072;-70
2022/08/05 05:40:35;;;;;;;4.00;3.60;;;;;;;28.13;41.03;100479.44;5035373;28;20033;-70
2022/08/05 05:43:00;;;;;;;3.20;2.90;;;;;;;28.22;40.84;100479.41;5017637;28;20473;-70
2022/08/05 05:45:47;;;;;;;5.95;4.18;;;;;;;28.28;40.50;100475.25;5035409;28;20025;-70
2022/08/05 05:48:19;;;;;;;5.22;3.70;;;;;;;28.37;40.17;100474.44;5035169;28;20040;-69
2022/08/05 05:50:44;;;;;;;4.55;3.80;;;;;;;28.44;40.41;100478.25;5035216;28;20051;-70
2022/08/05 05:53:15;;;;;;;5.43;3.88;;;;;;;28.51;39.96;100480.38;5034042;28;20531;-69
2022/08/05 05:55:45;;;;;;;3.72;3.42;;;;;;;28.57;39.91;100486.06;5035220;28;20033;-69
2022/08/05 05:58:11;;;;;;;4.28;3.58;;;;;;;28.65;39.75;100479.91;5035086;28;20026;-69
2022/08/05 06:00:36;;;;;;;4.72;3.60;;;;;;;28.70;39.86;100488.41;5017021;28;20071;-69
2022/08/05 06:03:02;;;;;;;4.97;3.22;;;;;;;28.80;39.56;100488.38;5035028;28;20112;-69
2022/08/05 06:05:27;;;;;;;3.70;3.20;;;;;;;28.90;39.77;100492.75;5033795;28;20025;-69
2022/08/05 06:07:53;;;;;;;3.35;3.05;;;;;;;28.98;39.64;100494.75;5034835;28;20083;-69
2022/08/05 06:10:18;;;;;;;3.72;3.25;;;;;;;29.11;39.68;100492.53;5034086;28;20029;-69
2022/08/05 06:12:46;;;;;;;3.90;3.20;;;;;;;29.19;39.64;100494.50;5016182;28;20021;-68
2022/08/05 06:15:12;;;;;;;3.60;3.30;;;;;;;29.23;39.92;100495.03;5033657;28;20402;-69
2022/08/05 06:17:37;;;;;;;3.83;3.50;;;;;;;29.28;39.64;100490.03;5034641;28;20507;-69
2022/08/05 06:20:21;;;;;;;3.58;2.92;;;;;;;29.40;39.50;100486.97;5034605;28;20025;-69
2022/08/05 06:22:51;;;;;;;7.75;3.20;;;;;;;29.55;38.95;100489.16;5034700;28;20056;-69
2022/08/05 06:25:17;;;;;;;3.58;3.05;;;;;;;29.61;38.36;100492.13;5032960;28;20401;-68
2022/08/05 06:27:42;;;;;;;4.28;3.10;;;;;;;29.68;38.50;100492.34;5034352;28;20538;-68
2022/08/05 06:30:14;;;;;;;4.20;3.00;;;;;;;29.79;38.28;100492.13;5033224;28;20040;-68
2022/08/05 06:32:40;;;;;;;3.90;3.47;;;;;;;29.91;38.41;100485.47;5034461;28;20056;-69
2022/08/05 06:35:08;;;;;;;6.70;3.90;;;;;;;30.03;37.99;100486.06;5034443;28;20034;-68
2022/08/05 06:37:33;;;;;;;4.00;3.35;;;;;;;30.10;38.11;100487.16;5034050;28;20615;-68
2022/08/05 06:39:59;;;;;;;5.57;3.38;;;;;;;30.24;37.84;100490.34;5016829;28;20128;-68
2022/08/05 06:42:24;;;;;;;4.45;3.47;;;;;;;30.35;37.98;100487.38;5034355;28;20141;-68
2022/08/05 06:44:49;;;;;;;5.53;3.40;;;;;;;30.40;37.22;100483.19;5033400;28;20030;-68
2022/08/05 06:47:17;;;;;;;4.50;3.03;;;;;;;30.41;36.87;100489.47;5034156;28;20048;-69
2022/08/05 06:49:43;;;;;;;3.75;3.13;;;;;;;30.48;36.96;100484.22;5032821;28;20572;-68
2022/08/05 06:52:08;;;;;;;3.95;2.92;;;;;;;30.56;37.28;100487.88;5000049;28;20108;-69
2022/08/05 06:54:34;;;;;;;5.65;2.83;;;;;;;30.60;37.22;100485.66;5033997;28;20398;-68
2022/08/05 06:56:59;;;;;;;4.15;2.90;;;;;;;30.66;37.24;100472.31;5032691;28;20033;-69
2022/08/05 06:59:24;;;;;;;3.03;2.72;;;;;;;30.71;37.18;100468.28;5032599;28;20040;-69
2022/08/05 07:01:50;;;;;;;3.80;2.95;;;;;;;30.78;36.70;100472.09;5034048;28;20037;-69
2022/08/05 07:04:16;;;;;;;3.35;2.88;;;;;;;30.86;36.49;100467.53;5033860;28;20116;-69
2022/08/05 07:06:41;;;;;;;3.03;2.72;;;;;;;30.99;36.47;100472.50;5032606;28;20037;-69
2022/08/05 07:09:07;;;;;;;3.60;2.75;;;;;;;31.09;36.15;100465.09;5033794;28;20032;-68
2022/08/05 07:11:33;;;;;;;4.47;2.65;;;;;;;31.22;35.99;100470.06;5033366;28;20033;-69
2022/08/05 07:16:49;;;;;;;2.60;2.22;;;;;;;31.38;35.78;100461.16;5033597;28;20044;-69
2022/08/05 07:19:19;;;;;;;3.53;2.75;;;;;;;31.44;35.42;100457.78;5032681;28;20029;-69
2022/08/05 07:21:45;;;;;;;3.10;2.80;;;;;;;31.53;35.36;100456.75;5033628;28;20036;-69
2022/08/05 07:24:11;;;;;;;2.80;2.50;;;;;;;31.56;35.08;100452.84;5032003;28;20029;-69
2022/08/05 07:26:36;;;;;;;2.97;2.30;;;;;;;31.57;35.14;100446.44;5033451;28;20025;-69
2022/08/05 07:29:10;;;;;;;2.80;2.25;;;;;;;31.53;35.25;100451.34;5032516;28;20116;-69
2022/08/05 07:31:36;;;;;;;3.65;2.40;;;;;;;31.54;35.37;100458.47;5033538;28;20033;-69
2022/08/05 07:34:02;;;;;;;2.53;2.33;;;;;;;31.59;35.43;100447.94;5033467;28;20532;-68
2022/08/05 07:36:28;;;;;;;4.60;2.50;;;;;;;31.69;35.22;100449.66;5033539;28;20033;-65
2022/08/05 07:38:54;;;;;;;3.03;2.20;;;;;;;31.79;34.53;100453.03;5033282;28;20029;-69
2022/08/05 07:41:21;;;;;;;2.60;2.22;;;;;;;31.93;34.13;100443.41;5031973;28;20067;-69
2022/08/05 07:43:47;;;;;;;2.95;2.58;;;;;;;32.01;34.34;100443.41;5031961;28;20025;-69
2022/08/05 07:46:13;;;;;;;2.58;2.20;;;;;;;32.11;34.34;100447.63;5033203;28;20037;-69
2022/08/05 07:48:38;;;;;;;2.88;2.25;;;;;;;32.12;33.97;100452.06;5033291;28;20033;-69
2022/08/05 07:51:04;;;;;;;3.13;2.20;;;;;;;32.08;34.52;100449.88;5031931;28;20053;-69
2022/08/05 07:53:29;;;;;;;4.72;2.25;;;;;;;32.04;33.99;100448.50;5032083;28;20385;-69
2022/08/05 07:55:55;;;;;;;5.57;2.33;;;;;;;32.12;33.55;100441.19;5033539;28;20052;-68
2022/08/05 07:58:20;;;;;;;3.10;2.40;;;;;;;32.18;33.94;100436.09;5032211;28;20029;-68
2022/08/05 08:00:46;;;;;;;2.88;2.53;;;;;;;32.21;33.02;100441.19;5031840;28;20072;-68
2022/08/05 08:03:12;;;;;;;6.50;1.92;;;;;;;32.25;33.39;100443.38;5033053;28;20033;-68
2022/08/05 08:05:42;;;;;;;3.15;2.03;;;;;;;32.36;33.34;100437.59;5032912;28;20483;-68
2022/08/05 08:08:11;;;;;;;3.65;2.25;;;;;;;32.12;32.65;100435.75;5031676;28;20040;-68
2022/08/05 08:10:37;;;;;;;4.78;2.53;;;;;;;32.28;32.52;100445.75;5031886;28;20065;-68
2022/08/05 08:13:03;;;;;;;2.60;2.28;;;;;;;32.31;32.55;100436.41;5031743;28;20044;-68
2022/08/05 08:15:29;;;;;;;2.65;2.10;;;;;;;32.40;32.08;100449.00;5033145;28;20025;-68
2022/08/05 08:17:55;;;;;;;2.22;2.03;;;;;;;32.18;32.60;100444.25;5033181;28;20049;-68
2022/08/05 08:20:21;;;;;;;5.72;2.50;;;;;;;32.05;32.63;100445.63;5031618;28;20455;-68
2022/08/05 08:22:54;;;;;;;3.55;2.10;;;;;;;31.94;32.02;100450.53;5032917;28;20078;-68
2022/08/05 08:25:20;;;;;;;3.42;2.10;;;;;;;32.05;32.69;100442.06;5031550;28;20034;-69
2022/08/05 08:27:45;;;;;;;3.25;1.88;;;;;;;32.14;32.67;100441.03;5033069;28;20029;-68
2022/08/05 08:30:12;;;;;;;3.42;2.00;;;;;;;32.03;32.69;100434.06;5031365;28;20048;-67
2022/08/05 08:32:37;;;;;;;2.47;2.00;;;;;;;32.01;32.80;100432.53;5032980;28;20029;-69
2022/08/05 08:35:03;;;;;;;4.00;2.45;;;;;;;32.05;32.60;100429.31;5033255;28;20461;-68
2022/08/05 08:37:31;;;;;;;2.95;1.92;;;;;;;31.88;32.71;100428.47;5034787;28;20104;-69
2022/08/05 08:39:56;;;;;;;3.10;1.98;;;;;;;32.06;32.59;100424.72;5035359;28;20040;-68
2022/08/05 08:42:22;;;;;;;3.33;1.90;;;;;;;32.05;32.98;100429.31;5035222;28;20357;-68
2022/08/05 08:44:48;;;;;;;2.75;1.90;;;;;;;32.15;32.62;100431.84;5035260;28;20045;-68
2022/08/05 08:47:15;;;;;;;2.47;2.03;;;;;;;32.31;32.52;100433.69;5036205;28;20025;-68
2022/08/05 08:49:44;;;;;;;2.33;1.77;;;;;;;32.43;32.25;100424.16;5036220;28;20029;-68
2022/08/05 08:52:18;;;;;;;2.17;1.98;;;;;;;32.52;32.21;100425.00;5036112;28;20029;-68
2022/08/05 08:54:46;;;;;;;16.13;5.45;;;;;;;32.62;32.15;100426.50;5036487;28;20033;-68
2022/08/05 08:57:11;;;;;;;5.00;2.50;;;;;;;32.68;32.24;100424.13;5036647;28;20033;-68
2022/08/05 08:59:38;;;;;;;8.57;3.08;;;;;;;32.71;32.61;100408.25;5034827;28;20025;-68
2022/08/05 09:02:05;;;;;;;6.65;3.10;;;;;;;32.67;32.54;100416.97;5036037;28;20029;-68
2022/08/05 09:04:36;;;;;;;8.38;3.40;;;;;;;32.63;31.97;100417.31;5034950;28;20025;-68
2022/08/05 09:07:03;;;;;;;12.38;3.75;;;;;;;32.69;32.17;100420.38;5034766;28;20028;-68
2022/08/05 09:09:29;;;;;;;4.75;2.70;;;;;;;32.67;32.05;100417.81;5034877;28;20108;-68
2022/08/05 09:11:55;;;;;;;8.50;3.65;;;;;;;32.73;31.84;100408.09;5036019;28;20535;-68
2022/08/05 09:14:21;;;;;;;6.97;2.08;;;;;;;32.74;31.79;100415.25;5035937;28;20029;-68
2022/08/05 09:16:46;;;;;;;2.83;1.80;;;;;;;32.80;32.06;100409.94;5035627;28;20037;-68
2022/08/05 09:19:12;;;;;;;5.00;2.50;;;;;;;32.83;31.99;100409.56;5034631;28;20041;-68
2022/08/05 09:21:37;;;;;;;7.38;2.67;;;;;;;32.83;31.59;100400.56;5018114;28;20030;-68
2022/08/05 09:24:08;;;;;;;6.10;2.75;;;;;;;32.88;31.66;100400.91;5035743;28;20029;-68
2022/08/05 09:26:35;;;;;;;8.93;2.85;;;;;;;32.94;31.88;100397.47;5034552;28;20123;-68
2022/08/05 09:29:04;;;;;;;3.95;1.75;;;;;;;32.98;31.82;100403.41;5035651;28;20030;-68
2022/08/05 09:31:31;;;;;;;3.95;1.95;;;;;;;33.01;32.02;100403.91;5034070;28;20033;-68
2022/08/05 09:33:58;;;;;;;5.25;1.55;;;;;;;33.08;31.79;100394.03;5035475;28;20037;-68
2022/08/05 09:36:44;;;;;;;3.22;1.60;;;;;;;33.13;31.23;100389.91;5034280;28;20027;-68
2022/08/05 09:39:11;;;;;;;2.83;1.60;;;;;;;33.18;31.44;100387.50;5035549;28;20060;-68
2022/08/05 09:42:00;;;;;;;3.28;1.60;;;;;;;33.18;31.10;100382.03;5035307;28;20029;-68
2022/08/05 09:44:33;;;;;;;5.18;2.00;;;;;;;33.22;31.48;100386.09;5035491;28;20148;-68
2022/08/05 09:47:26;;;;;;;3.10;1.63;;;;;;;33.06;31.85;100387.03;5033893;28;20061;-69
2022/08/05 09:49:56;;;;;;;3.92;1.83;;;;;;;33.19;31.25;100389.16;5033817;28;20163;-68
2022/08/05 09:52:21;;;;;;;3.65;1.75;;;;;;;33.23;31.72;100385.06;5034226;28;20119;-68
2022/08/05 09:54:56;;;;;;;4.47;1.63;;;;;;;33.16;30.37;100384.13;5035087;28;20128;-68
2022/08/05 09:57:33;;;;;;;5.57;2.10;;;;;;;33.21;30.65;100379.81;5035168;28;20030;-68
2022/08/05 10:00:24;;;;;;;6.20;1.80;;;;;;;33.31;29.78;100376.84;5034898;28;20033;-68
2022/08/05 10:02:54;;;;;;;4.78;1.88;;;;;;;33.32;30.94;100368.50;5032210;28;20037;-68
2022/08/05 10:05:23;;;;;;;3.83;2.03;;;;;;;33.37;30.83;100364.41;5034952;28;20029;-68
2022/08/05 10:08:01;;;;;;;9.20;1.85;;;;;;;33.40;30.16;100362.16;5035000;28;20025;-68
2022/08/05 10:10:35;;;;;;;3.70;1.80;;;;;;;33.50;30.30;100353.75;5034906;28;20117;-67
2022/08/05 10:13:04;;;;;;;4.85;2.00;;;;;;;33.54;30.74;100363.25;5034924;28;20381;-67
2022/08/05 10:15:33;;;;;;;1.98;1.60;;;;;;;33.55;30.40;100351.31;5034854;28;20377;-67
2022/08/05 10:18:18;;;;;;;3.22;1.80;;;;;;;33.53;29.67;100358.84;5034768;28;20052;-68
2022/08/05 10:20:51;;;;;;;5.55;1.77;;;;;;;33.58;30.70;100350.97;5033171;28;20022;-69
2022/08/05 10:23:25;;;;;;;3.33;1.80;;;;;;;33.57;29.77;100350.13;5034489;28;20068;-68
2022/08/05 10:25:50;;;;;;;4.18;1.90;;;;;;;33.65;30.32;100348.38;5033285;28;20030;-69
2022/08/05 10:28:17;;;;;;;4.25;1.92;;;;;;;33.66;29.99;100339.16;5034572;28;20147;-68
2022/08/05 10:30:42;;;;;;;3.00;1.80;;;;;;;33.71;30.09;100339.44;5034269;28;20104;-68
2022/08/05 10:33:08;;;;;;;17.25;5.95;;;;;;;33.72;29.78;100332.97;5034441;28;20112;-67
2022/08/05 10:35:35;;;;;;;8.32;4.25;;;;;;;33.76;30.13;100334.31;5034216;28;20076;-68
2022/08/05 10:38:02;;;;;;;13.93;4.22;;;;;;;33.72;29.53;100336.56;5032859;28;20049;-69
2022/08/05 10:40:43;;;;;;;8.90;4.03;;;;;;;33.76;29.80;100337.03;5034267;28;20024;-68
2022/08/05 10:43:16;;;;;;;20.20;8.35;;;;;;;33.82;28.56;100330.81;5034326;28;20025;-68
2022/08/05 10:45:54;;;;;;;10.20;4.18;;;;;;;33.93;29.69;100340.44;5034323;28;20025;-68
2022/08/05 10:48:33;;;;;;;8.48;3.22;;;;;;;34.01;29.67;100333.03;5033996;28;20033;-69
2022/08/05 10:51:19;;;;;;;8.80;3.72;;;;;;;33.97;28.56;100329.00;5034001;28;20113;-68
2022/08/05 10:54:01;;;;;;;6.82;2.80;;;;;;;34.10;29.82;100327.50;5034171;28;20033;-68
2022/08/05 10:56:29;;;;;;;5.57;2.30;;;;;;;34.16;30.23;100322.16;5034019;28;20029;-69
2022/08/05 10:59:04;;;;;;;3.90;1.95;;;;;;;34.18;30.10;100325.53;5033380;28;20389;-68
2022/08/05 11:01:33;;;;;;;5.30;3.15;;;;;;;34.25;29.92;100317.44;5033821;28;20060;-68
2022/08/05 11:04:04;;;;;;;7.88;3.10;;;;;;;34.36;29.68;100318.88;5032579;28;20025;-69
2022/08/05 11:06:30;;;;;;;8.63;2.70;;;;;;;34.39;29.24;100313.00;5033794;28;20040;-67
2022/08/05 11:09:19;;;;;;;10.93;3.25;;;;;;;34.44;28.87;100313.31;5033851;28;20037;-68
2022/08/05 11:11:46;;;;;;;10.30;3.30;;;;;;;34.51;29.80;100315.13;5032410;28;20425;-68
2022/08/05 11:14:21;;;;;;;4.30;2.30;;;;;;;34.48;29.21;100315.50;5033707;28;20030;-68
2022/08/05 11:17:25;;;;;;;6.45;2.60;;;;;;;34.56;27.93;100312.66;5033729;28;20047;-69
2022/08/05 11:19:52;;;;;;;9.38;3.78;;;;;;;34.58;29.66;100304.25;5033462;28;20029;-67
2022/08/05 11:22:51;;;;;;;5.40;2.92;;;;;;;34.57;28.71;100302.56;5032330;28;20385;-68
2022/08/05 11:25:44;;;;;;;9.35;2.80;;;;;;;34.62;30.09;100302.00;5032361;28;20021;-69
2022/08/05 11:28:12;;;;;;;2.70;1.63;;;;;;;34.66;29.43;100297.84;5032190;28;20465;-68
2022/08/05 11:30:56;;;;;;;6.25;2.40;;;;;;;34.74;30.57;100295.00;5033504;28;20029;-68
2022/08/05 11:33:25;;;;;;;3.55;2.20;;;;;;;34.74;30.28;100292.28;5033408;28;20033;-69
2022/08/05 11:35:56;;;;;;;3.20;2.35;;;;;;;34.73;30.16;100290.59;5032148;28;20362;-68
2022/08/05 11:38:40;;;;;;;4.13;2.28;;;;;;;34.80;30.10;100286.06;5033378;28;20041;-68